createdAt,value
2023-07-19T00:01:52.909Z,100253.06
2023-07-19T00:03:54.547Z,100248.72
2023-07-19T00:05:56.135Z,100242.41
2023-07-19T00:07:57.991Z,100247.53
2023-07-19T00:10:02.672Z,100236.88
2023-07-19T00:12:05.313Z,100240.03
2023-07-19T00:14:07.576Z,100235.69
2023-07-19T00:16:10.801Z,100244.75
2023-07-19T00:18:12.566Z,100251.88
2023-07-19T00:20:14.741Z,100248.31
2023-07-19T00:22:16.388Z,100250.69
2023-07-19T00:24:17.947Z,100247.53
2023-07-19T00:26:20.245Z,100243.19
2023-07-19T00:28:22.074Z,100253.06
2023-07-19T00:30:23.997Z,100251.88
2023-07-19T00:32:27.194Z,100255.81
2023-07-19T00:34:28.911Z,100253.84
2023-07-19T00:36:30.546Z,100249.13
2023-07-19T00:38:32.275Z,100245.94
2023-07-19T00:40:34.203Z,100256.19
2023-07-19T00:42:36.078Z,100249.91
2023-07-19T00:44:38.541Z,100251.41
2023-07-19T00:46:40.387Z,100244.72
2023-07-19T00:48:46.571Z,100248.63
2023-07-19T00:50:50.131Z,100253.38
2023-07-19T00:52:53.279Z,100251.38
2023-07-19T00:54:55.463Z,100249.78
2023-07-19T00:56:58.152Z,100249.38
2023-07-19T00:59:02.281Z,100253.72
2023-07-19T01:01:05.829Z,100249.38
2023-07-19T01:03:07.568Z,100253.31
2023-07-19T01:05:10.847Z,100248.97
2023-07-19T01:07:14.115Z,100245.44
2023-07-19T01:09:15.772Z,100249.78
2023-07-19T01:11:17.539Z,100242.28
2023-07-19T01:13:19.183Z,100244.25
2023-07-19T01:15:20.890Z,100247.03
2023-07-19T01:17:22.570Z,100240.72
2023-07-19T01:19:24.239Z,100239.53
2023-07-19T01:21:30.050Z,100239.53
2023-07-19T01:23:33.507Z,100240.31
2023-07-19T01:25:35.337Z,100245.44
2023-07-19T01:27:37.007Z,100247.81
2023-07-19T01:29:38.632Z,100248.97
2023-07-19T01:31:40.281Z,100254.50
2023-07-19T01:33:42.159Z,100251.31
2023-07-19T01:35:43.849Z,100245.41
2023-07-19T01:37:45.660Z,100252.09
2023-07-19T01:39:50.291Z,100250.47
2023-07-19T01:41:56.597Z,100256.00
2023-07-19T01:43:58.249Z,100255.22
2023-07-19T01:46:00.357Z,100254.44
2023-07-19T01:48:02.261Z,100248.13
2023-07-19T01:50:04.385Z,100243.78
2023-07-19T01:52:06.499Z,100236.34
2023-07-19T01:54:08.109Z,100237.91
2023-07-19T01:56:11.175Z,100234.75
2023-07-19T01:58:12.872Z,100233.13
2023-07-19T02:00:15.039Z,100229.97
2023-07-19T02:02:19.253Z,100233.09
2023-07-19T02:04:21.160Z,100228.38
2023-07-19T02:06:22.890Z,100223.59
2023-07-19T02:08:24.579Z,100228.72
2023-07-19T02:10:26.822Z,100224.34
2023-07-19T02:12:29.888Z,100227.09
2023-07-19T02:14:31.522Z,100218.81
2023-07-19T02:16:33.312Z,100216.41
2023-07-19T02:18:34.903Z,100208.06
2023-07-19T02:20:38.909Z,100209.22
2023-07-19T02:22:40.673Z,100202.13
2023-07-19T02:24:42.468Z,100193.41
2023-07-19T02:26:44.138Z,100199.28
2023-07-19T02:28:47.166Z,100196.09
2023-07-19T02:30:48.867Z,100195.22
2023-07-19T02:32:50.879Z,100196.38
2023-07-19T02:34:52.609Z,100192.41
2023-07-19T02:36:54.302Z,100192.78
2023-07-19T02:38:56.021Z,100198.66
2023-07-19T02:41:01.491Z,100203.31
2023-07-19T02:43:03.207Z,100208.41
2023-07-19T02:45:07.466Z,100211.88
2023-07-19T02:47:09.112Z,100204.44
2023-07-19T02:49:11.676Z,100211.84
2023-07-19T02:51:13.443Z,100220.50
2023-07-19T02:53:15.806Z,100218.91
2023-07-19T02:55:17.437Z,100218.88
2023-07-19T02:57:19.059Z,100209.03
2023-07-19T02:59:20.686Z,100207.88
2023-07-19T03:01:25.894Z,100217.31
2023-07-19T03:03:27.959Z,100224.78
2023-07-19T03:05:29.746Z,100225.59
2023-07-19T03:07:32.821Z,100219.38
2023-07-19T03:09:34.488Z,100222.91
2023-07-19T03:11:38.243Z,100233.16
2023-07-19T03:13:40.223Z,100231.97
2023-07-19T03:15:47.159Z,100234.31
2023-07-19T03:17:50.504Z,100238.31
2023-07-19T03:19:52.671Z,100249.66
2023-07-19T03:21:54.534Z,100251.69
2023-07-19T03:23:56.174Z,100248.13
2023-07-19T03:25:58.250Z,100252.88
2023-07-19T03:28:00.449Z,100252.41
2023-07-19T03:30:02.390Z,100259.06
2023-07-19T03:32:04.718Z,100259.53
2023-07-19T03:34:08.024Z,100253.28
2023-07-19T03:36:09.833Z,100255.63
2023-07-19T03:38:11.447Z,100247.38
2023-07-19T03:40:13.973Z,100255.97
2023-07-19T03:42:15.717Z,100263.44
2023-07-19T03:44:17.430Z,100257.06
2023-07-19T03:46:19.137Z,100264.88
2023-07-19T03:48:22.777Z,100269.97
2023-07-19T03:50:26.711Z,100271.53
2023-07-19T03:52:28.389Z,100271.97
2023-07-19T03:54:29.997Z,100279.84
2023-07-19T03:56:36.714Z,100274.72
2023-07-19T03:58:38.442Z,100281.06
2023-07-19T04:00:40.216Z,100285.78
2023-07-19T04:02:41.900Z,100290.50
2023-07-19T04:04:43.553Z,100286.50
2023-07-19T04:06:46.616Z,100291.59
2023-07-19T04:08:48.358Z,100293.13
2023-07-19T04:10:50.211Z,100290.69
2023-07-19T04:12:52.083Z,100289.34
2023-07-19T04:14:53.702Z,100291.69
2023-07-19T04:16:55.412Z,100294.09
2023-07-19T04:18:57.092Z,100297.53
2023-07-19T04:20:58.784Z,100283.31
2023-07-19T04:23:02.157Z,100293.53
2023-07-19T04:25:04.226Z,100291.97
2023-07-19T04:27:06.135Z,100290.84
2023-07-19T04:29:07.858Z,100293.94
2023-07-19T04:31:09.486Z,100288.78
2023-07-19T04:33:11.198Z,100287.59
2023-07-19T04:35:13.719Z,100289.56
2023-07-19T04:37:15.532Z,100283.28
2023-07-19T04:39:18.526Z,100288.28
2023-07-19T04:41:20.435Z,100287.56
2023-07-19T04:43:22.537Z,100290.31
2023-07-19T04:45:24.488Z,100295.38
2023-07-19T04:47:26.160Z,100295.81
2023-07-19T04:49:30.661Z,100295.78
2023-07-19T04:51:32.313Z,100296.56
2023-07-19T04:53:34.336Z,100293.03
2023-07-19T04:55:37.502Z,100301.56
2023-07-19T04:57:39.780Z,100305.50
2023-07-19T04:59:41.439Z,100307.94
2023-07-19T05:01:43.206Z,100312.69
2023-07-19T05:03:46.410Z,100306.91
2023-07-19T05:05:48.223Z,100307.28
2023-07-19T05:07:50.977Z,100306.84
2023-07-19T05:09:54.872Z,100303.78
2023-07-19T05:11:57.948Z,100310.50
2023-07-19T05:13:59.644Z,100312.50
2023-07-19T05:16:01.633Z,100313.75
2023-07-19T05:18:03.442Z,100307.50
2023-07-19T05:20:06.677Z,100305.09
2023-07-19T05:22:08.335Z,100310.56
2023-07-19T05:24:10.144Z,100307.50
2023-07-19T05:26:11.960Z,100312.63
2023-07-19T05:28:23.636Z,100320.59
2023-07-19T05:30:25.263Z,100317.72
2023-07-19T05:32:27.248Z,100323.16
2023-07-19T05:34:28.879Z,100318.78
2023-07-19T05:36:30.784Z,100312.97
2023-07-19T05:38:32.443Z,100313.34
2023-07-19T05:40:34.204Z,100314.59
2023-07-19T05:42:35.856Z,100316.56
2023-07-19T05:44:39.326Z,100310.66
2023-07-19T05:46:40.936Z,100319.75
2023-07-19T05:48:42.671Z,100324.13
2023-07-19T05:50:44.381Z,100320.59
2023-07-19T05:52:46.011Z,100317.47
2023-07-19T05:54:49.103Z,100324.19
2023-07-19T05:56:51.188Z,100321.41
2023-07-19T05:58:52.832Z,100322.19
2023-07-19T06:00:55.961Z,100317.44
2023-07-19T06:02:58.398Z,100315.22
2023-07-19T06:05:00.278Z,100311.66
2023-07-19T06:07:02.053Z,100322.69
2023-07-19T06:09:04.220Z,100314.03
2023-07-19T06:11:05.918Z,100314.91
2023-07-19T06:13:07.640Z,100314.03
2023-07-19T06:15:12.249Z,100320.81
2023-07-19T06:17:17.013Z,100318.47
2023-07-19T06:19:18.687Z,100319.75
2023-07-19T06:21:20.685Z,100315.06
2023-07-19T06:23:22.841Z,100320.19
2023-07-19T06:25:24.740Z,100322.97
2023-07-19T06:27:33.661Z,100324.03
2023-07-19T06:29:35.366Z,100326.13
2023-07-19T06:31:37.015Z,100324.25
2023-07-19T06:33:40.011Z,100331.47
2023-07-19T06:35:41.670Z,100335.78
2023-07-19T06:37:43.393Z,100325.97
2023-07-19T06:39:45.111Z,100325.63
2023-07-19T06:41:46.782Z,100326.47
2023-07-19T06:43:48.467Z,100322.16
2023-07-19T06:45:50.250Z,100324.16
2023-07-19T06:47:52.085Z,100323.78
2023-07-19T06:49:55.337Z,100317.50
2023-07-19T06:51:56.994Z,100322.25
2023-07-19T06:54:13.027Z,100315.56
2023-07-19T06:56:16.881Z,100317.28
2023-07-19T06:58:20.450Z,100313.84
2023-07-19T07:00:22.412Z,100312.72
2023-07-19T07:02:24.378Z,100316.72
2023-07-19T07:04:26.103Z,100326.66
2023-07-19T07:06:29.174Z,100323.94
2023-07-19T07:08:30.811Z,100320.06
2023-07-19T07:10:32.584Z,100325.66
2023-07-19T07:12:34.277Z,100321.31
2023-07-19T07:14:36.021Z,100319.75
2023-07-19T07:16:37.857Z,100316.22
2023-07-19T07:18:39.943Z,100319.38
2023-07-19T07:20:41.699Z,100309.91
2023-07-19T07:22:44.725Z,100313.03
2023-07-19T07:24:46.500Z,100316.88
2023-07-19T07:26:48.344Z,100322.31
2023-07-19T07:28:50.009Z,100326.25
2023-07-19T07:30:51.822Z,100325.94
2023-07-19T07:32:53.866Z,100322.91
2023-07-19T07:34:55.558Z,100323.25
2023-07-19T07:37:00.064Z,100324.84
2023-07-19T07:39:03.593Z,100327.56
2023-07-19T07:41:05.729Z,100322.47
2023-07-19T07:43:07.861Z,100323.50
2023-07-19T07:45:10.339Z,100333.28
2023-07-19T07:47:12.111Z,100328.66
2023-07-19T07:49:13.834Z,100327.53
2023-07-19T07:51:15.505Z,100320.78
2023-07-19T07:53:17.239Z,100319.72
2023-07-19T07:55:20.265Z,100320.03
2023-07-19T07:57:21.904Z,100324.81
2023-07-19T07:59:23.611Z,100317.34
2023-07-19T08:01:25.694Z,100307.13
2023-07-19T08:03:27.782Z,100302.03
2023-07-19T08:05:29.658Z,100303.63
2023-07-19T08:07:31.667Z,100303.56
2023-07-19T08:09:34.026Z,100304.38
2023-07-19T08:11:37.140Z,100296.44
2023-07-19T08:13:41.771Z,100293.72
2023-07-19T08:15:43.502Z,100290.97
2023-07-19T08:17:45.404Z,100283.88
2023-07-19T08:19:47.122Z,100284.66
2023-07-19T08:21:48.855Z,100281.50
2023-07-19T08:23:50.942Z,100279.16
2023-07-19T08:25:55.913Z,100279.91
2023-07-19T08:27:59.039Z,100277.16
2023-07-19T08:30:00.700Z,100275.97
2023-07-19T08:32:02.366Z,100260.97
2023-07-19T08:34:04.181Z,100265.72
2023-07-19T08:36:06.476Z,100268.03
2023-07-19T08:38:08.295Z,100262.50
2023-07-19T08:40:11.793Z,100257.38
2023-07-19T08:42:13.850Z,100260.06
2023-07-19T08:44:17.536Z,100257.31
2023-07-19T08:46:19.466Z,100253.72
2023-07-19T08:48:21.494Z,100253.66
2023-07-19T08:50:25.306Z,100257.19
2023-07-19T08:52:28.076Z,100250.03
2023-07-19T08:54:29.942Z,100251.56
2023-07-19T08:56:31.919Z,100252.75
2023-07-19T08:58:37.053Z,100253.56
2023-07-19T09:00:40.875Z,100247.16
2023-07-19T09:02:42.526Z,100248.28
2023-07-19T09:05:05.513Z,100250.16
2023-07-19T09:07:07.354Z,100251.78
2023-07-19T09:09:10.130Z,100243.88
2023-07-19T09:11:11.839Z,100246.53
2023-07-19T09:13:19.187Z,100239.44
2023-07-19T09:15:23.963Z,100241.38
2023-07-19T09:17:28.973Z,100244.50
2023-07-19T09:19:36.966Z,100242.47
2023-07-19T09:21:40.619Z,100234.13
2023-07-19T09:23:48.227Z,100238.94
2023-07-19T09:25:53.767Z,100232.53
2023-07-19T09:27:58.730Z,100227.31
2023-07-19T09:30:00.900Z,100234.00
2023-07-19T09:32:03.936Z,100225.16
2023-07-19T09:34:08.743Z,100222.41
2023-07-19T09:36:10.741Z,100222.84
2023-07-19T09:38:18.624Z,100232.72
2023-07-19T09:40:20.699Z,100218.75
2023-07-19T09:42:24.096Z,100226.66
2023-07-19T09:44:26.373Z,100223.38
2023-07-19T09:46:28.159Z,100213.56
2023-07-19T09:48:30.112Z,100207.38
2023-07-19T09:50:42.249Z,100205.03
2023-07-19T09:52:46.244Z,100198.72
2023-07-19T09:54:48.302Z,100200.31
2023-07-19T09:56:53.180Z,100196.34
2023-07-19T09:58:58.833Z,100195.06
2023-07-19T10:01:00.714Z,100191.06
2023-07-19T10:03:02.502Z,100186.19
2023-07-19T10:05:08.430Z,100182.19
2023-07-19T10:07:25.918Z,100181.81
2023-07-19T10:09:37.380Z,100176.59
2023-07-19T10:11:39.078Z,100176.13
2023-07-19T10:14:07.059Z,100179.25
2023-07-19T10:16:23.407Z,100182.59
2023-07-19T10:18:25.501Z,100173.34
2023-07-19T10:20:29.060Z,100170.19
2023-07-19T10:22:52.120Z,100175.94
2023-07-19T10:25:05.082Z,100170.00
2023-07-19T10:27:09.159Z,100171.75
2023-07-19T10:29:17.693Z,100175.25
2023-07-19T10:31:28.092Z,100164.56
2023-07-19T10:33:32.518Z,100171.38
2023-07-19T10:35:34.307Z,100165.81
2023-07-19T10:37:35.904Z,100159.53
2023-07-19T10:39:39.058Z,100152.75
2023-07-19T10:41:50.603Z,100157.59
2023-07-19T10:43:59.025Z,100159.69
2023-07-19T10:46:01.450Z,100159.41
2023-07-19T10:48:03.656Z,100163.09
2023-07-19T10:50:05.795Z,100159.13
2023-07-19T10:52:08.226Z,100158.44
2023-07-19T10:54:10.280Z,100160.50
2023-07-19T10:56:14.041Z,100159.56
2023-07-19T10:58:16.182Z,100152.06
2023-07-19T11:00:18.332Z,100159.13
2023-07-19T11:02:20.715Z,100154.84
2023-07-19T11:04:23.058Z,100146.94
2023-07-19T11:06:24.785Z,100148.03
2023-07-19T11:08:27.918Z,100143.75
2023-07-19T11:10:29.636Z,100146.63
2023-07-19T11:12:33.027Z,100148.25
2023-07-19T11:14:35.155Z,100143.88
2023-07-19T11:16:36.951Z,100136.94
2023-07-19T11:18:42.329Z,100131.81
2023-07-19T11:20:44.089Z,100125.78
2023-07-19T11:22:46.051Z,100125.88
2023-07-19T11:24:48.697Z,100122.47
2023-07-19T11:26:53.702Z,100124.47
2023-07-19T11:28:58.339Z,100113.16
2023-07-19T11:31:00.108Z,100117.50
2023-07-19T11:33:02.597Z,100112.75
2023-07-19T11:35:05.301Z,100107.97
2023-07-19T11:37:07.016Z,100102.72
2023-07-19T11:39:14.269Z,100103.53
2023-07-19T11:41:17.731Z,100106.34
2023-07-19T11:43:24.732Z,100106.75
2023-07-19T11:45:29.792Z,100103.97
2023-07-19T11:47:31.641Z,100100.50
2023-07-19T11:49:33.662Z,100102.53
2023-07-19T11:51:35.351Z,100096.53
2023-07-19T11:53:37.008Z,100093.75
2023-07-19T11:55:38.816Z,100099.75
2023-07-19T11:57:42.548Z,100091.94
2023-07-19T11:59:45.390Z,100090.84
2023-07-19T12:01:48.643Z,100091.22
2023-07-19T12:03:50.391Z,100092.47
2023-07-19T12:05:52.317Z,100103.63
2023-07-19T12:07:54.307Z,100105.69
2023-07-19T12:09:56.025Z,100103.72
2023-07-19T12:11:57.730Z,100109.75
2023-07-19T12:13:59.867Z,100125.94
2023-07-19T12:16:01.704Z,100139.78
2023-07-19T12:18:05.289Z,100138.97
2023-07-19T12:20:09.332Z,100126.00
2023-07-19T12:24:16.002Z,100111.63
2023-07-19T12:26:17.915Z,100107.75
2023-07-19T12:28:19.584Z,100102.34
2023-07-19T12:30:21.280Z,100097.16
2023-07-19T12:32:23.966Z,100098.22
2023-07-19T12:34:27.521Z,100089.72
2023-07-19T12:36:29.773Z,100096.81
2023-07-19T12:38:31.410Z,100092.22
2023-07-19T12:40:34.372Z,100096.72
2023-07-19T12:42:36.235Z,100085.19
2023-07-19T12:44:38.825Z,100076.94
2023-07-19T12:46:40.533Z,100077.16
2023-07-19T12:48:44.666Z,100080.13
2023-07-19T12:50:47.965Z,100064.69
2023-07-19T12:52:52.541Z,100066.88
2023-07-19T12:54:54.704Z,100066.31
2023-07-19T12:56:56.745Z,100067.41
2023-07-19T12:58:58.473Z,100063.28
2023-07-19T13:01:00.302Z,100064.03
2023-07-19T13:03:03.701Z,100064.66
2023-07-19T13:05:05.878Z,100054.59
2023-07-19T13:07:09.438Z,100052.56
2023-07-19T13:09:11.298Z,100052.09
2023-07-19T13:11:13.362Z,100050.69
2023-07-19T13:13:15.167Z,100046.25
2023-07-19T13:15:17.016Z,100047.13
2023-07-19T13:17:22.412Z,100032.75
2023-07-19T13:19:24.501Z,100032.94
2023-07-19T13:21:27.523Z,100025.81
2023-07-19T13:23:30.676Z,100021.94
2023-07-19T13:25:32.391Z,100025.81
2023-07-19T13:27:35.615Z,100016.19
2023-07-19T13:29:37.973Z,100018.06
2023-07-19T13:31:41.350Z,100007.50
2023-07-19T13:33:44.019Z,100013.97
2023-07-19T13:39:56.605Z,100028.75
2023-07-19T13:41:58.292Z,100015.09
2023-07-19T13:44:00.018Z,100016.97
2023-07-19T13:46:03.624Z,100017.66
2023-07-19T13:48:05.916Z,100007.69
2023-07-19T13:50:08.213Z,100015.19
2023-07-19T13:52:09.940Z,100002.38
2023-07-19T13:54:11.668Z,99990.00
2023-07-19T13:56:15.348Z,100002.69
2023-07-19T13:58:17.013Z,99996.63
2023-07-19T14:00:21.659Z,99986.06
2023-07-19T14:02:27.207Z,99978.63
2023-07-19T14:04:29.562Z,99974.81
2023-07-19T14:06:32.026Z,99971.31
2023-07-19T14:08:34.063Z,99962.16
2023-07-19T14:10:35.929Z,99969.03
2023-07-19T14:12:39.007Z,99962.84
2023-07-19T14:16:46.528Z,99956.44
2023-07-19T14:18:48.546Z,99958.25
2023-07-19T14:20:50.308Z,99959.34
2023-07-19T14:22:54.659Z,99945.75
2023-07-19T14:24:56.622Z,99953.53
2023-07-19T14:26:58.395Z,99954.25
2023-07-19T14:29:03.968Z,99949.16
2023-07-19T14:31:06.446Z,99945.25
2023-07-19T14:33:08.358Z,99941.06
2023-07-19T14:35:10.202Z,99940.28
2023-07-19T14:37:12.014Z,99939.88
2023-07-19T14:39:13.868Z,99933.78
2023-07-19T14:41:16.274Z,99946.94
2023-07-19T14:43:18.065Z,99937.81
2023-07-19T14:45:21.751Z,99948.94
2023-07-19T14:47:24.085Z,99948.50
2023-07-19T14:49:27.239Z,99942.94
2023-07-19T14:51:29.234Z,99958.94
2023-07-19T14:53:31.328Z,99965.94
2023-07-19T14:55:33.228Z,99958.25
2023-07-19T14:57:35.057Z,99965.38
2023-07-19T15:01:46.127Z,99981.19
2023-07-19T15:03:50.468Z,99984.19
2023-07-19T15:05:52.285Z,99966.97
2023-07-19T15:07:55.861Z,99969.75
2023-07-19T15:09:58.055Z,99969.38
2023-07-19T15:11:59.989Z,99968.19
2023-07-19T15:14:01.668Z,99963.34
2023-07-19T15:16:03.330Z,99962.38
2023-07-19T15:18:06.663Z,99972.00
2023-07-19T15:20:09.113Z,99969.84
2023-07-19T15:22:11.142Z,99972.97
2023-07-19T15:24:12.855Z,99974.13
2023-07-19T15:26:32.551Z,99968.00
2023-07-19T15:28:35.389Z,99975.34
2023-07-19T15:30:37.267Z,99972.84
2023-07-19T15:32:40.619Z,99967.28
2023-07-19T15:34:45.229Z,99963.78
2023-07-19T15:36:47.060Z,99964.38
2023-07-19T15:38:48.703Z,99974.31
2023-07-19T15:40:51.268Z,99972.25
2023-07-19T15:42:53.000Z,99977.44
2023-07-19T15:44:55.962Z,99981.97
2023-07-19T15:46:57.666Z,99982.59
2023-07-19T15:48:59.341Z,99983.16
2023-07-19T15:51:02.422Z,99997.47
2023-07-19T15:53:04.030Z,99989.16
2023-07-19T15:55:06.992Z,99988.75
2023-07-19T15:57:08.722Z,99996.78
2023-07-19T15:59:10.485Z,100001.91
2023-07-19T16:01:16.921Z,99996.03
2023-07-19T16:03:19.114Z,100007.44
2023-07-19T16:05:20.867Z,100001.13
2023-07-19T16:07:24.133Z,100000.75
2023-07-19T16:09:25.899Z,99997.97
2023-07-19T16:11:28.245Z,99993.41
2023-07-19T16:13:30.461Z,99996.19
2023-07-19T16:15:32.309Z,99998.91
2023-07-19T16:17:34.052Z,99989.28
2023-07-19T16:19:35.869Z,99996.13
2023-07-19T16:21:37.720Z,99982.16
2023-07-19T16:23:40.989Z,99981.19
2023-07-19T16:25:42.651Z,99990.06
2023-07-19T16:27:44.429Z,100003.94
2023-07-19T16:29:46.171Z,100004.59
2023-07-19T16:31:48.491Z,100009.41
2023-07-19T16:33:50.187Z,100019.63
2023-07-19T16:35:51.872Z,100018.94
2023-07-19T16:37:54.035Z,100020.47
2023-07-19T16:39:57.012Z,100011.59
2023-07-19T16:41:58.670Z,100015.63
2023-07-19T16:44:00.537Z,100024.81
2023-07-19T16:46:02.298Z,100022.47
2023-07-19T16:48:04.707Z,100027.72
2023-07-19T16:50:07.582Z,100019.59
2023-07-19T16:52:09.301Z,100020.44
2023-07-19T16:54:11.033Z,100017.97
2023-07-19T16:56:16.789Z,100023.16
2023-07-19T16:58:18.433Z,100020.44
2023-07-19T17:00:20.570Z,100029.19
2023-07-19T17:02:22.391Z,100036.72
2023-07-19T17:04:24.105Z,100030.94
2023-07-19T17:06:25.934Z,100038.00
2023-07-19T17:08:27.614Z,100034.16
2023-07-19T17:10:32.335Z,100042.50
2023-07-19T17:12:35.626Z,100040.16
2023-07-19T17:14:37.273Z,100053.88
2023-07-19T17:16:39.010Z,100057.47
2023-07-19T17:18:42.643Z,100058.16
2023-07-19T17:20:46.539Z,100057.78
2023-07-19T17:22:48.284Z,100057.84
2023-07-19T17:24:50.353Z,100064.63
2023-07-19T17:26:52.081Z,100061.94
2023-07-19T17:28:55.327Z,100060.38
2023-07-19T17:30:57.332Z,100060.69
2023-07-19T17:32:59.029Z,100060.47
2023-07-19T17:35:00.798Z,100066.53
2023-07-19T17:37:02.474Z,100065.34
2023-07-19T17:39:04.216Z,100070.13
2023-07-19T17:41:07.323Z,100067.34
2023-07-19T17:43:10.984Z,100084.78
2023-07-19T17:45:17.996Z,100083.16
2023-07-19T17:47:19.851Z,100087.97
2023-07-19T17:49:21.592Z,100092.69
2023-07-19T17:51:23.804Z,100086.72
2023-07-19T17:53:25.719Z,100097.38
2023-07-19T17:55:27.679Z,100098.28
2023-07-19T17:57:29.778Z,100101.41
2023-07-19T17:59:31.808Z,100095.56
2023-07-19T18:01:34.954Z,100106.97
2023-07-19T18:03:38.052Z,100094.97
2023-07-19T18:05:40.087Z,100105.69
2023-07-19T18:07:50.399Z,100098.94
2023-07-19T18:09:52.223Z,100110.53
2023-07-19T18:11:54.187Z,100105.81
2023-07-19T18:13:56.196Z,100113.72
2023-07-19T18:15:58.233Z,100119.69
2023-07-19T18:18:01.503Z,100119.28
2023-07-19T18:20:04.168Z,100120.00
2023-07-19T18:22:06.134Z,100122.34
2023-07-19T18:24:08.531Z,100124.72
2023-07-19T18:26:10.310Z,100131.00
2023-07-19T18:28:12.074Z,100122.00
2023-07-19T18:30:16.616Z,100126.03
2023-07-19T18:32:18.475Z,100131.53
2023-07-19T18:34:21.941Z,100131.13
2023-07-19T18:36:24.322Z,100138.13
2023-07-19T18:38:26.162Z,100136.56
2023-07-19T18:40:27.992Z,100132.59
2023-07-19T18:42:30.255Z,100144.88
2023-07-19T18:44:37.474Z,100142.09
2023-07-19T18:46:39.362Z,100142.91
2023-07-19T18:48:41.495Z,100140.56
2023-07-19T18:50:45.349Z,100146.88
2023-07-19T18:52:48.410Z,100155.63
2023-07-19T18:54:50.318Z,100148.50
2023-07-19T18:56:52.821Z,100152.53
2023-07-19T18:58:55.141Z,100150.63
2023-07-19T19:00:57.863Z,100156.56
2023-07-19T19:02:59.897Z,100156.22
2023-07-19T19:05:02.574Z,100157.00
2023-07-19T19:07:06.137Z,100160.19
2023-07-19T19:09:08.284Z,100160.63
2023-07-19T19:11:10.243Z,100171.31
2023-07-19T19:13:12.461Z,100178.25
2023-07-19T19:15:15.269Z,100171.69
2023-07-19T19:17:19.304Z,100178.34
2023-07-19T19:19:21.484Z,100173.59
2023-07-19T19:21:24.482Z,100176.75
2023-07-19T19:23:28.646Z,100184.66
2023-07-19T19:25:31.190Z,100190.66
2023-07-19T19:27:33.555Z,100193.84
2023-07-19T19:29:35.855Z,100191.78
2023-07-19T19:31:37.834Z,100191.03
2023-07-19T19:33:39.788Z,100209.66
2023-07-19T19:35:41.951Z,100197.72
2023-07-19T19:37:47.033Z,100201.22
2023-07-19T19:39:53.190Z,100202.41
2023-07-19T19:41:55.098Z,100198.47
2023-07-19T19:43:56.905Z,100209.16
2023-07-19T19:45:58.722Z,100201.25
2023-07-19T19:48:01.894Z,100202.84
2023-07-19T19:50:05.362Z,100214.34
2023-07-19T19:52:09.725Z,100214.38
2023-07-19T19:54:13.098Z,100211.97
2023-07-19T19:56:18.081Z,100221.91
2023-07-19T19:58:20.506Z,100226.69
2023-07-19T20:00:25.713Z,100222.81
2023-07-19T20:04:32.130Z,100226.03
2023-07-19T20:06:34.158Z,100232.38
2023-07-19T20:08:37.444Z,100227.59
2023-07-19T20:10:39.869Z,100239.47
2023-07-19T20:12:43.094Z,100244.63
2023-07-19T20:14:46.977Z,100249.41
2023-07-19T20:18:54.978Z,100255.78
2023-07-19T20:20:57.093Z,100257.00
2023-07-19T20:23:00.644Z,100259.75
2023-07-19T20:25:13.502Z,100259.38
2023-07-19T20:27:23.515Z,100257.41
2023-07-19T20:29:27.040Z,100262.53
2023-07-19T20:33:34.832Z,100267.31
2023-07-19T20:37:44.989Z,100270.13
2023-07-19T20:41:56.050Z,100275.28
2023-07-19T20:43:58.010Z,100271.34
2023-07-19T20:46:07.172Z,100276.53
2023-07-19T20:48:09.252Z,100277.34
2023-07-19T20:50:11.046Z,100288.09
2023-07-19T20:52:16.087Z,100289.25
2023-07-19T20:54:25.236Z,100284.16
2023-07-19T20:56:27.175Z,100285.03
2023-07-19T20:58:28.969Z,100294.88
2023-07-19T21:00:30.745Z,100290.88
2023-07-19T21:02:34.233Z,100287.72
2023-07-19T21:04:36.118Z,100286.50
2023-07-19T21:06:37.959Z,100287.69
2023-07-19T21:08:42.627Z,100294.03
2023-07-19T21:10:45.066Z,100282.97
2023-07-19T21:12:47.060Z,100290.88
2023-07-19T21:14:48.857Z,100294.84
2023-07-19T21:16:55.665Z,100296.06
2023-07-19T21:18:59.305Z,100296.81
2023-07-19T21:21:02.541Z,100298.81
2023-07-19T21:23:04.963Z,100294.88
2023-07-19T21:25:15.545Z,100290.19
2023-07-19T21:27:18.071Z,100298.50
2023-07-19T21:29:20.532Z,100299.69
2023-07-19T21:31:23.545Z,100294.91
2023-07-19T21:33:25.524Z,100295.38
2023-07-19T21:35:28.933Z,100296.53
2023-07-19T21:37:33.907Z,100288.66
2023-07-19T21:39:35.746Z,100289.09
2023-07-19T21:41:40.338Z,100283.97
2023-07-19T21:43:48.225Z,100289.13
2023-07-19T21:45:50.117Z,100288.69
2023-07-19T21:47:51.909Z,100286.31
2023-07-19T21:50:02.509Z,100289.88
2023-07-19T21:52:11.000Z,100294.25
2023-07-19T21:54:14.264Z,100296.28
2023-07-19T21:56:16.522Z,100293.47
2023-07-19T21:58:18.320Z,100300.56
2023-07-19T22:00:38.017Z,100306.13
2023-07-19T22:02:39.926Z,100302.56
2023-07-19T22:04:44.556Z,100298.22
2023-07-19T22:06:46.434Z,100312.06
2023-07-19T22:08:50.078Z,100309.66
2023-07-19T22:10:51.826Z,100312.44
2023-07-19T22:12:53.717Z,100306.94
2023-07-19T22:15:06.912Z,100304.97
2023-07-19T22:17:10.549Z,100307.75
2023-07-19T22:19:12.443Z,100306.53
2023-07-19T22:21:21.507Z,100315.28
2023-07-19T22:23:25.782Z,100318.44
2023-07-19T22:25:28.917Z,100311.69
2023-07-19T22:27:30.880Z,100307.75
2023-07-19T22:29:32.596Z,100316.84
2023-07-19T22:31:34.679Z,100318.03
2023-07-19T22:33:36.567Z,100312.09
2023-07-19T22:35:38.220Z,100311.34
2023-07-19T22:37:39.877Z,100316.84
2023-07-19T22:39:42.260Z,100316.03
2023-07-19T22:41:45.673Z,100318.84
2023-07-19T22:43:48.088Z,100321.59
2023-07-19T22:45:50.025Z,100325.56
2023-07-19T22:47:51.704Z,100323.63
2023-07-19T22:49:53.419Z,100324.41
2023-07-19T22:51:55.087Z,100323.63
2023-07-19T22:53:57.972Z,100328.34
2023-07-19T22:55:59.716Z,100336.31
2023-07-19T22:58:03.379Z,100330.00
2023-07-19T23:00:06.778Z,100338.69
2023-07-19T23:02:08.548Z,100331.59
2023-07-19T23:04:10.405Z,100333.97
2023-07-19T23:06:12.011Z,100332.81
2023-07-19T23:08:13.619Z,100343.06
2023-07-19T23:10:16.149Z,100345.84
2023-07-19T23:12:17.964Z,100343.88
2023-07-19T23:14:21.004Z,100345.84
2023-07-19T23:16:23.511Z,100345.47
2023-07-19T23:18:25.419Z,100346.63
2023-07-19T23:20:27.081Z,100339.91
2023-07-19T23:22:28.818Z,100345.44
2023-07-19T23:24:30.893Z,100350.59
2023-07-19T23:26:32.533Z,100349.00
2023-07-19T23:28:34.191Z,100348.59
2023-07-19T23:30:39.498Z,100350.19
2023-07-19T23:32:41.592Z,100346.66
2023-07-19T23:34:43.358Z,100347.03
2023-07-19T23:36:45.159Z,100349.41
2023-07-19T23:38:46.863Z,100345.88
2023-07-19T23:40:48.773Z,100351.81
2023-07-19T23:42:50.533Z,100354.19
2023-07-19T23:44:52.104Z,100354.19
2023-07-19T23:46:59.815Z,100355.75
2023-07-19T23:49:03.065Z,100356.53